sensor_id;sensor_type;location;lat;lon;timestamp;P1;durP1;ratioP1;P2;durP2;ratioP2
33810;SDS011;20119;48.334;16.206;2024-03-06T00:01:11;42.35;;;31.08;;
33810;SDS011;20119;48.334;16.206;2024-03-06T00:03:38;47.65;;;32.63;;
33810;SDS011;20119;48.334;16.206;2024-03-06T00:06:06;45.50;;;32.08;;
33810;SDS011;20119;48.334;16.206;2024-03-06T00:08:34;44.97;;;32.10;;
33810;SDS011;20119;48.334;16.206;2024-03-06T00:11:02;50.00;;;33.22;;
33810;SDS011;20119;48.334;16.206;2024-03-06T00:13:29;47.42;;;31.85;;
33810;SDS011;20119;48.334;16.206;2024-03-06T00:15:56;43.60;;;31.30;;
33810;SDS011;20119;48.334;16.206;2024-03-06T00:18:23;46.15;;;31.27;;
33810;SDS011;20119;48.334;16.206;2024-03-06T00:20:50;44.35;;;31.58;;
33810;SDS011;20119;48.334;16.206;2024-03-06T00:23:19;43.35;;;31.35;;
33810;SDS011;20119;48.334;16.206;2024-03-06T00:25:46;43.00;;;30.85;;
33810;SDS011;20119;48.334;16.206;2024-03-06T00:28:13;43.50;;;30.20;;
33810;SDS011;20119;48.334;16.206;2024-03-06T00:30:40;43.63;;;30.55;;
33810;SDS011;20119;48.334;16.206;2024-03-06T00:33:07;47.22;;;32.03;;
33810;SDS011;20119;48.334;16.206;2024-03-06T00:35:34;46.60;;;32.30;;
33810;SDS011;20119;48.334;16.206;2024-03-06T00:38:01;43.92;;;31.15;;
33810;SDS011;20119;48.334;16.206;2024-03-06T00:43:05;47.00;;;31.98;;
33810;SDS011;20119;48.334;16.206;2024-03-06T00:45:32;43.75;;;30.67;;
33810;SDS011;20119;48.334;16.206;2024-03-06T00:48:00;46.28;;;32.10;;
33810;SDS011;20119;48.334;16.206;2024-03-06T00:50:27;46.25;;;31.92;;
33810;SDS011;20119;48.334;16.206;2024-03-06T00:52:54;44.10;;;30.35;;
33810;SDS011;20119;48.334;16.206;2024-03-06T00:55:21;42.15;;;31.27;;
33810;SDS011;20119;48.334;16.206;2024-03-06T00:57:48;42.53;;;31.10;;
33810;SDS011;20119;48.334;16.206;2024-03-06T01:00:17;43.00;;;30.15;;
33810;SDS011;20119;48.334;16.206;2024-03-06T01:02:45;44.78;;;31.40;;
33810;SDS011;20119;48.334;16.206;2024-03-06T01:05:12;43.22;;;30.88;;
33810;SDS011;20119;48.334;16.206;2024-03-06T01:07:40;46.63;;;31.40;;
33810;SDS011;20119;48.334;16.206;2024-03-06T01:12:41;41.67;;;30.05;;
33810;SDS011;20119;48.334;16.206;2024-03-06T01:15:10;41.45;;;29.75;;
33810;SDS011;20119;48.334;16.206;2024-03-06T01:17:39;46.55;;;31.30;;
33810;SDS011;20119;48.334;16.206;2024-03-06T01:20:07;41.60;;;29.45;;
33810;SDS011;20119;48.334;16.206;2024-03-06T01:22:34;43.60;;;30.33;;
33810;SDS011;20119;48.334;16.206;2024-03-06T01:25:02;42.83;;;29.50;;
33810;SDS011;20119;48.334;16.206;2024-03-06T01:27:30;40.35;;;28.92;;
33810;SDS011;20119;48.334;16.206;2024-03-06T01:29:57;39.55;;;28.33;;
33810;SDS011;20119;48.334;16.206;2024-03-06T01:32:24;43.45;;;29.80;;
33810;SDS011;20119;48.334;16.206;2024-03-06T01:34:52;39.55;;;28.67;;
33810;SDS011;20119;48.334;16.206;2024-03-06T01:37:19;45.25;;;31.55;;
33810;SDS011;20119;48.334;16.206;2024-03-06T01:39:46;45.85;;;31.35;;
33810;SDS011;20119;48.334;16.206;2024-03-06T01:42:16;44.92;;;30.77;;
33810;SDS011;20119;48.334;16.206;2024-03-06T01:44:43;45.90;;;31.07;;
33810;SDS011;20119;48.334;16.206;2024-03-06T01:47:10;44.95;;;31.88;;
33810;SDS011;20119;48.334;16.206;2024-03-06T01:49:37;50.63;;;32.58;;
33810;SDS011;20119;48.334;16.206;2024-03-06T01:52:05;44.30;;;31.92;;
33810;SDS011;20119;48.334;16.206;2024-03-06T01:54:34;42.95;;;30.85;;
33810;SDS011;20119;48.334;16.206;2024-03-06T01:57:02;46.97;;;32.60;;
33810;SDS011;20119;48.334;16.206;2024-03-06T01:59:30;46.88;;;33.88;;
33810;SDS011;20119;48.334;16.206;2024-03-06T02:01:57;50.47;;;35.08;;
33810;SDS011;20119;48.334;16.206;2024-03-06T02:04:26;51.13;;;34.80;;
33810;SDS011;20119;48.334;16.206;2024-03-06T02:06:54;50.65;;;35.42;;
33810;SDS011;20119;48.334;16.206;2024-03-06T02:09:22;52.55;;;36.05;;
33810;SDS011;20119;48.334;16.206;2024-03-06T02:11:50;54.38;;;35.67;;
33810;SDS011;20119;48.334;16.206;2024-03-06T02:14:17;57.13;;;37.15;;
33810;SDS011;20119;48.334;16.206;2024-03-06T02:16:44;52.83;;;35.58;;
33810;SDS011;20119;48.334;16.206;2024-03-06T02:19:11;53.70;;;36.55;;
33810;SDS011;20119;48.334;16.206;2024-03-06T02:21:40;53.90;;;35.80;;
33810;SDS011;20119;48.334;16.206;2024-03-06T02:24:08;54.42;;;37.55;;
33810;SDS011;20119;48.334;16.206;2024-03-06T02:26:38;56.97;;;36.30;;
33810;SDS011;20119;48.334;16.206;2024-03-06T02:29:05;55.20;;;37.08;;
33810;SDS011;20119;48.334;16.206;2024-03-06T02:31:32;56.28;;;37.33;;
33810;SDS011;20119;48.334;16.206;2024-03-06T02:33:59;56.40;;;38.35;;
33810;SDS011;20119;48.334;16.206;2024-03-06T02:36:29;55.25;;;37.63;;
33810;SDS011;20119;48.334;16.206;2024-03-06T02:41:34;57.85;;;37.42;;
33810;SDS011;20119;48.334;16.206;2024-03-06T02:46:29;59.00;;;39.72;;
33810;SDS011;20119;48.334;16.206;2024-03-06T02:48:56;56.60;;;38.22;;
33810;SDS011;20119;48.334;16.206;2024-03-06T02:51:23;60.35;;;38.90;;
33810;SDS011;20119;48.334;16.206;2024-03-06T02:53:50;58.78;;;38.83;;
33810;SDS011;20119;48.334;16.206;2024-03-06T02:56:18;60.72;;;39.95;;
33810;SDS011;20119;48.334;16.206;2024-03-06T02:58:47;59.15;;;39.20;;
33810;SDS011;20119;48.334;16.206;2024-03-06T03:01:14;57.40;;;38.88;;
33810;SDS011;20119;48.334;16.206;2024-03-06T03:03:41;60.90;;;40.35;;
33810;SDS011;20119;48.334;16.206;2024-03-06T03:06:09;59.75;;;40.03;;
33810;SDS011;20119;48.334;16.206;2024-03-06T03:11:09;68.35;;;42.80;;
33810;SDS011;20119;48.334;16.206;2024-03-06T03:13:36;65.40;;;42.45;;
33810;SDS011;20119;48.334;16.206;2024-03-06T03:23:52;84.40;;;49.22;;
33810;SDS011;20119;48.334;16.206;2024-03-06T03:26:19;81.72;;;48.85;;
33810;SDS011;20119;48.334;16.206;2024-03-06T03:28:46;81.38;;;49.15;;
33810;SDS011;20119;48.334;16.206;2024-03-06T03:31:13;83.63;;;50.15;;
33810;SDS011;20119;48.334;16.206;2024-03-06T03:33:40;85.13;;;50.60;;
33810;SDS011;20119;48.334;16.206;2024-03-06T03:36:07;85.13;;;51.53;;
33810;SDS011;20119;48.334;16.206;2024-03-06T03:38:35;86.45;;;50.67;;
33810;SDS011;20119;48.334;16.206;2024-03-06T03:43:35;84.20;;;48.95;;
33810;SDS011;20119;48.334;16.206;2024-03-06T03:46:02;81.60;;;48.90;;
33810;SDS011;20119;48.334;16.206;2024-03-06T03:48:31;79.32;;;48.95;;
33810;SDS011;20119;48.334;16.206;2024-03-06T03:51:01;88.03;;;52.67;;
33810;SDS011;20119;48.334;16.206;2024-03-06T03:53:29;83.75;;;50.92;;
33810;SDS011;20119;48.334;16.206;2024-03-06T03:55:56;80.38;;;49.38;;
33810;SDS011;20119;48.334;16.206;2024-03-06T03:58:25;79.45;;;48.28;;
33810;SDS011;20119;48.334;16.206;2024-03-06T04:00:52;80.97;;;48.03;;
33810;SDS011;20119;48.334;16.206;2024-03-06T04:03:20;77.97;;;48.45;;
33810;SDS011;20119;48.334;16.206;2024-03-06T04:05:47;72.18;;;45.03;;
33810;SDS011;20119;48.334;16.206;2024-03-06T04:08:14;75.32;;;45.28;;
33810;SDS011;20119;48.334;16.206;2024-03-06T04:10:42;70.10;;;45.20;;
33810;SDS011;20119;48.334;16.206;2024-03-06T04:15:39;69.22;;;44.50;;
33810;SDS011;20119;48.334;16.206;2024-03-06T04:18:06;71.65;;;45.15;;
33810;SDS011;20119;48.334;16.206;2024-03-06T04:20:33;71.05;;;44.67;;
33810;SDS011;20119;48.334;16.206;2024-03-06T04:23:00;72.28;;;45.13;;
33810;SDS011;20119;48.334;16.206;2024-03-06T04:25:28;70.82;;;43.35;;
33810;SDS011;20119;48.334;16.206;2024-03-06T04:27:55;71.45;;;43.75;;
33810;SDS011;20119;48.334;16.206;2024-03-06T04:32:59;71.32;;;44.28;;
33810;SDS011;20119;48.334;16.206;2024-03-06T04:35:26;68.28;;;42.92;;
33810;SDS011;20119;48.334;16.206;2024-03-06T04:37:53;71.53;;;42.97;;
33810;SDS011;20119;48.334;16.206;2024-03-06T04:40:20;68.05;;;43.17;;
33810;SDS011;20119;48.334;16.206;2024-03-06T04:42:48;70.35;;;44.53;;
33810;SDS011;20119;48.334;16.206;2024-03-06T04:45:15;68.85;;;42.90;;
33810;SDS011;20119;48.334;16.206;2024-03-06T04:47:43;66.70;;;42.72;;
33810;SDS011;20119;48.334;16.206;2024-03-06T04:50:12;75.18;;;43.85;;
33810;SDS011;20119;48.334;16.206;2024-03-06T04:52:40;71.72;;;44.15;;
33810;SDS011;20119;48.334;16.206;2024-03-06T04:55:08;69.43;;;43.10;;
33810;SDS011;20119;48.334;16.206;2024-03-06T04:57:36;75.60;;;46.05;;
33810;SDS011;20119;48.334;16.206;2024-03-06T05:02:39;73.97;;;45.40;;
33810;SDS011;20119;48.334;16.206;2024-03-06T05:05:07;73.68;;;44.83;;
33810;SDS011;20119;48.334;16.206;2024-03-06T05:07:36;75.15;;;46.03;;
33810;SDS011;20119;48.334;16.206;2024-03-06T05:20:31;76.97;;;45.65;;
33810;SDS011;20119;48.334;16.206;2024-03-06T05:25:27;80.25;;;46.83;;
33810;SDS011;20119;48.334;16.206;2024-03-06T05:27:54;82.47;;;46.22;;
33810;SDS011;20119;48.334;16.206;2024-03-06T05:30:22;77.25;;;46.30;;
33810;SDS011;20119;48.334;16.206;2024-03-06T05:32:49;79.32;;;46.67;;
33810;SDS011;20119;48.334;16.206;2024-03-06T05:37:53;81.55;;;46.47;;
33810;SDS011;20119;48.334;16.206;2024-03-06T05:56:00;75.40;;;44.08;;
33810;SDS011;20119;48.334;16.206;2024-03-06T05:58:27;78.30;;;44.90;;
33810;SDS011;20119;48.334;16.206;2024-03-06T06:00:54;79.35;;;46.03;;
33810;SDS011;20119;48.334;16.206;2024-03-06T06:03:22;77.93;;;45.83;;
33810;SDS011;20119;48.334;16.206;2024-03-06T06:05:52;76.95;;;45.95;;
33810;SDS011;20119;48.334;16.206;2024-03-06T06:08:33;78.78;;;44.25;;
33810;SDS011;20119;48.334;16.206;2024-03-06T06:11:03;75.03;;;44.92;;
33810;SDS011;20119;48.334;16.206;2024-03-06T06:13:30;75.03;;;44.42;;
33810;SDS011;20119;48.334;16.206;2024-03-06T06:15:57;74.03;;;42.42;;
33810;SDS011;20119;48.334;16.206;2024-03-06T06:20:55;70.65;;;41.15;;
33810;SDS011;20119;48.334;16.206;2024-03-06T06:23:22;59.53;;;38.45;;
33810;SDS011;20119;48.334;16.206;2024-03-06T06:25:49;54.70;;;36.00;;
33810;SDS011;20119;48.334;16.206;2024-03-06T06:28:17;51.60;;;34.75;;
33810;SDS011;20119;48.334;16.206;2024-03-06T06:30:45;47.63;;;32.35;;
33810;SDS011;20119;48.334;16.206;2024-03-06T06:33:12;51.65;;;31.30;;
33810;SDS011;20119;48.334;16.206;2024-03-06T06:46:03;43.05;;;28.95;;
33810;SDS011;20119;48.334;16.206;2024-03-06T06:48:31;40.38;;;27.50;;
33810;SDS011;20119;48.334;16.206;2024-03-06T06:50:59;38.38;;;27.23;;
33810;SDS011;20119;48.334;16.206;2024-03-06T06:53:27;38.83;;;27.10;;
33810;SDS011;20119;48.334;16.206;2024-03-06T06:55:55;37.55;;;26.30;;
33810;SDS011;20119;48.334;16.206;2024-03-06T06:58:22;40.85;;;26.80;;
33810;SDS011;20119;48.334;16.206;2024-03-06T07:00:49;35.17;;;25.20;;
33810;SDS011;20119;48.334;16.206;2024-03-06T07:03:18;35.15;;;24.88;;
33810;SDS011;20119;48.334;16.206;2024-03-06T07:05:45;34.65;;;24.67;;
33810;SDS011;20119;48.334;16.206;2024-03-06T07:08:12;34.88;;;25.60;;
33810;SDS011;20119;48.334;16.206;2024-03-06T07:10:39;36.53;;;25.70;;
33810;SDS011;20119;48.334;16.206;2024-03-06T07:18:18;32.70;;;24.13;;
33810;SDS011;20119;48.334;16.206;2024-03-06T07:20:45;32.88;;;24.40;;
33810;SDS011;20119;48.334;16.206;2024-03-06T07:23:12;30.88;;;24.13;;
33810;SDS011;20119;48.334;16.206;2024-03-06T07:25:39;35.15;;;23.95;;
33810;SDS011;20119;48.334;16.206;2024-03-06T07:28:06;34.15;;;24.63;;
33810;SDS011;20119;48.334;16.206;2024-03-06T07:30:34;31.10;;;24.42;;
33810;SDS011;20119;48.334;16.206;2024-03-06T07:33:01;33.45;;;23.52;;
33810;SDS011;20119;48.334;16.206;2024-03-06T07:35:29;32.75;;;24.50;;
33810;SDS011;20119;48.334;16.206;2024-03-06T07:40:32;30.88;;;23.52;;
33810;SDS011;20119;48.334;16.206;2024-03-06T07:42:59;32.83;;;23.02;;
33810;SDS011;20119;48.334;16.206;2024-03-06T07:48:01;30.65;;;22.52;;
33810;SDS011;20119;48.334;16.206;2024-03-06T07:50:30;31.42;;;23.45;;
33810;SDS011;20119;48.334;16.206;2024-03-06T07:52:57;34.53;;;24.05;;
33810;SDS011;20119;48.334;16.206;2024-03-06T07:55:25;32.88;;;24.52;;
33810;SDS011;20119;48.334;16.206;2024-03-06T07:57:52;32.13;;;24.33;;
33810;SDS011;20119;48.334;16.206;2024-03-06T08:00:19;30.15;;;23.88;;
33810;SDS011;20119;48.334;16.206;2024-03-06T08:02:47;34.80;;;25.20;;
33810;SDS011;20119;48.334;16.206;2024-03-06T08:05:15;35.95;;;26.65;;
33810;SDS011;20119;48.334;16.206;2024-03-06T08:10:19;36.10;;;26.95;;
33810;SDS011;20119;48.334;16.206;2024-03-06T08:12:46;36.28;;;27.88;;
33810;SDS011;20119;48.334;16.206;2024-03-06T08:15:14;36.25;;;26.80;;
33810;SDS011;20119;48.334;16.206;2024-03-06T08:17:42;35.10;;;26.38;;
33810;SDS011;20119;48.334;16.206;2024-03-06T08:20:10;37.72;;;28.27;;
33810;SDS011;20119;48.334;16.206;2024-03-06T08:22:39;40.88;;;27.65;;
33810;SDS011;20119;48.334;16.206;2024-03-06T08:25:06;38.08;;;28.60;;
33810;SDS011;20119;48.334;16.206;2024-03-06T08:27:36;37.53;;;28.10;;
33810;SDS011;20119;48.334;16.206;2024-03-06T08:30:04;37.45;;;28.23;;
33810;SDS011;20119;48.334;16.206;2024-03-06T08:32:32;37.45;;;26.40;;
33810;SDS011;20119;48.334;16.206;2024-03-06T08:35:00;35.55;;;26.92;;
33810;SDS011;20119;48.334;16.206;2024-03-06T08:37:30;36.13;;;26.60;;
33810;SDS011;20119;48.334;16.206;2024-03-06T08:45:07;36.53;;;26.40;;
33810;SDS011;20119;48.334;16.206;2024-03-06T08:50:09;35.17;;;27.08;;
33810;SDS011;20119;48.334;16.206;2024-03-06T08:52:36;35.60;;;26.98;;
33810;SDS011;20119;48.334;16.206;2024-03-06T08:55:04;34.85;;;26.55;;
33810;SDS011;20119;48.334;16.206;2024-03-06T08:57:32;36.00;;;25.45;;
33810;SDS011;20119;48.334;16.206;2024-03-06T09:00:00;35.47;;;25.60;;
33810;SDS011;20119;48.334;16.206;2024-03-06T09:02:28;33.80;;;25.30;;
33810;SDS011;20119;48.334;16.206;2024-03-06T09:04:56;34.83;;;25.55;;
33810;SDS011;20119;48.334;16.206;2024-03-06T09:07:23;33.78;;;24.70;;
33810;SDS011;20119;48.334;16.206;2024-03-06T09:09:50;32.80;;;24.63;;
33810;SDS011;20119;48.334;16.206;2024-03-06T09:12:18;32.83;;;25.13;;
33810;SDS011;20119;48.334;16.206;2024-03-06T09:14:45;30.75;;;23.42;;
33810;SDS011;20119;48.334;16.206;2024-03-06T09:17:14;34.33;;;26.48;;
33810;SDS011;20119;48.334;16.206;2024-03-06T09:19:42;36.03;;;26.33;;
33810;SDS011;20119;48.334;16.206;2024-03-06T09:22:09;32.60;;;21.38;;
33810;SDS011;20119;48.334;16.206;2024-03-06T09:24:37;33.10;;;24.85;;
33810;SDS011;20119;48.334;16.206;2024-03-06T09:27:04;32.60;;;24.20;;
33810;SDS011;20119;48.334;16.206;2024-03-06T09:29:31;35.80;;;25.75;;
33810;SDS011;20119;48.334;16.206;2024-03-06T09:31:58;33.20;;;24.85;;
33810;SDS011;20119;48.334;16.206;2024-03-06T09:34:25;35.80;;;25.75;;
33810;SDS011;20119;48.334;16.206;2024-03-06T09:42:05;29.80;;;22.13;;
33810;SDS011;20119;48.334;16.206;2024-03-06T09:44:32;26.27;;;19.90;;
33810;SDS011;20119;48.334;16.206;2024-03-06T09:47:02;26.48;;;20.48;;
33810;SDS011;20119;48.334;16.206;2024-03-06T09:49:29;27.63;;;19.95;;
33810;SDS011;20119;48.334;16.206;2024-03-06T09:51:58;25.35;;;19.42;;
33810;SDS011;20119;48.334;16.206;2024-03-06T09:54:25;32.22;;;21.60;;
33810;SDS011;20119;48.334;16.206;2024-03-06T09:56:53;29.15;;;19.75;;
33810;SDS011;20119;48.334;16.206;2024-03-06T09:59:24;36.95;;;21.55;;
33810;SDS011;20119;48.334;16.206;2024-03-06T10:01:53;27.77;;;19.77;;
33810;SDS011;20119;48.334;16.206;2024-03-06T10:04:23;25.15;;;18.52;;
33810;SDS011;20119;48.334;16.206;2024-03-06T10:09:26;23.15;;;16.95;;
33810;SDS011;20119;48.334;16.206;2024-03-06T10:11:54;23.20;;;17.80;;
33810;SDS011;20119;48.334;16.206;2024-03-06T10:14:22;26.20;;;18.90;;
33810;SDS011;20119;48.334;16.206;2024-03-06T10:16:54;24.90;;;18.70;;
33810;SDS011;20119;48.334;16.206;2024-03-06T10:19:23;25.63;;;18.92;;
33810;SDS011;20119;48.334;16.206;2024-03-06T10:21:52;27.98;;;19.65;;
33810;SDS011;20119;48.334;16.206;2024-03-06T10:24:20;26.63;;;19.60;;
33810;SDS011;20119;48.334;16.206;2024-03-06T10:26:49;28.90;;;19.08;;
33810;SDS011;20119;48.334;16.206;2024-03-06T10:29:19;29.00;;;21.25;;
33810;SDS011;20119;48.334;16.206;2024-03-06T10:31:52;24.77;;;19.02;;
33810;SDS011;20119;48.334;16.206;2024-03-06T10:34:21;26.92;;;19.05;;
33810;SDS011;20119;48.334;16.206;2024-03-06T10:36:50;29.77;;;20.70;;
33810;SDS011;20119;48.334;16.206;2024-03-06T10:39:20;27.58;;;19.80;;
33810;SDS011;20119;48.334;16.206;2024-03-06T10:41:49;29.23;;;19.80;;
33810;SDS011;20119;48.334;16.206;2024-03-06T10:44:20;31.73;;;22.70;;
33810;SDS011;20119;48.334;16.206;2024-03-06T10:46:50;28.65;;;20.80;;
33810;SDS011;20119;48.334;16.206;2024-03-06T10:49:23;30.02;;;20.73;;
33810;SDS011;20119;48.334;16.206;2024-03-06T10:51:52;29.80;;;21.10;;
33810;SDS011;20119;48.334;16.206;2024-03-06T10:56:53;27.58;;;19.95;;
33810;SDS011;20119;48.334;16.206;2024-03-06T10:59:21;28.70;;;20.85;;
33810;SDS011;20119;48.334;16.206;2024-03-06T11:01:52;25.90;;;20.38;;
33810;SDS011;20119;48.334;16.206;2024-03-06T11:06:53;26.40;;;20.08;;
33810;SDS011;20119;48.334;16.206;2024-03-06T11:09:20;28.23;;;21.00;;
33810;SDS011;20119;48.334;16.206;2024-03-06T11:11:48;27.92;;;20.27;;
33810;SDS011;20119;48.334;16.206;2024-03-06T11:14:16;29.63;;;20.73;;
33810;SDS011;20119;48.334;16.206;2024-03-06T11:16:57;27.25;;;20.60;;
33810;SDS011;20119;48.334;16.206;2024-03-06T11:19:27;31.42;;;21.95;;
33810;SDS011;20119;48.334;16.206;2024-03-06T11:21:56;29.40;;;20.80;;
33810;SDS011;20119;48.334;16.206;2024-03-06T11:24:23;28.00;;;21.23;;
33810;SDS011;20119;48.334;16.206;2024-03-06T11:32:35;29.77;;;21.83;;
33810;SDS011;20119;48.334;16.206;2024-03-06T11:35:03;29.08;;;22.55;;
33810;SDS011;20119;48.334;16.206;2024-03-06T11:37:34;29.15;;;21.10;;
33810;SDS011;20119;48.334;16.206;2024-03-06T11:40:04;28.88;;;22.38;;
33810;SDS011;20119;48.334;16.206;2024-03-06T11:42:33;33.78;;;23.02;;
33810;SDS011;20119;48.334;16.206;2024-03-06T11:45:11;29.45;;;22.08;;
33810;SDS011;20119;48.334;16.206;2024-03-06T11:50:27;31.88;;;23.55;;
33810;SDS011;20119;48.334;16.206;2024-03-06T11:52:56;33.10;;;23.80;;
33810;SDS011;20119;48.334;16.206;2024-03-06T11:55:24;33.33;;;23.90;;
33810;SDS011;20119;48.334;16.206;2024-03-06T11:57:51;29.63;;;22.60;;
33810;SDS011;20119;48.334;16.206;2024-03-06T12:00:21;32.03;;;22.90;;
33810;SDS011;20119;48.334;16.206;2024-03-06T12:02:48;30.75;;;22.17;;
33810;SDS011;20119;48.334;16.206;2024-03-06T12:05:16;31.55;;;21.73;;
33810;SDS011;20119;48.334;16.206;2024-03-06T12:07:47;32.78;;;22.40;;
33810;SDS011;20119;48.334;16.206;2024-03-06T12:10:16;31.60;;;22.17;;
33810;SDS011;20119;48.334;16.206;2024-03-06T12:15:14;31.42;;;22.23;;
33810;SDS011;20119;48.334;16.206;2024-03-06T12:17:44;28.93;;;22.77;;
33810;SDS011;20119;48.334;16.206;2024-03-06T12:20:12;28.38;;;21.52;;
33810;SDS011;20119;48.334;16.206;2024-03-06T12:22:44;28.63;;;21.05;;
33810;SDS011;20119;48.334;16.206;2024-03-06T12:25:19;28.65;;;22.13;;
33810;SDS011;20119;48.334;16.206;2024-03-06T12:27:47;28.75;;;22.10;;
33810;SDS011;20119;48.334;16.206;2024-03-06T12:30:16;29.92;;;22.17;;
33810;SDS011;20119;48.334;16.206;2024-03-06T12:32:43;30.55;;;23.00;;
33810;SDS011;20119;48.334;16.206;2024-03-06T12:35:11;28.83;;;21.73;;
33810;SDS011;20119;48.334;16.206;2024-03-06T12:37:38;28.30;;;22.15;;
33810;SDS011;20119;48.334;16.206;2024-03-06T12:40:05;31.17;;;22.67;;
33810;SDS011;20119;48.334;16.206;2024-03-06T12:45:15;31.17;;;22.17;;
33810;SDS011;20119;48.334;16.206;2024-03-06T12:47:43;31.40;;;22.15;;
33810;SDS011;20119;48.334;16.206;2024-03-06T12:50:13;31.80;;;21.90;;
33810;SDS011;20119;48.334;16.206;2024-03-06T12:55:16;30.55;;;22.73;;
33810;SDS011;20119;48.334;16.206;2024-03-06T12:57:44;32.72;;;22.08;;
33810;SDS011;20119;48.334;16.206;2024-03-06T13:00:12;31.35;;;22.88;;
33810;SDS011;20119;48.334;16.206;2024-03-06T13:02:41;31.75;;;23.17;;
33810;SDS011;20119;48.334;16.206;2024-03-06T13:07:44;32.13;;;22.17;;
33810;SDS011;20119;48.334;16.206;2024-03-06T13:10:11;33.30;;;23.20;;
33810;SDS011;20119;48.334;16.206;2024-03-06T13:12:39;31.55;;;23.48;;
33810;SDS011;20119;48.334;16.206;2024-03-06T13:17:42;27.65;;;19.48;;
33810;SDS011;20119;48.334;16.206;2024-03-06T13:20:10;27.63;;;19.75;;
33810;SDS011;20119;48.334;16.206;2024-03-06T13:22:37;27.45;;;19.48;;
33810;SDS011;20119;48.334;16.206;2024-03-06T13:25:05;25.00;;;18.67;;
33810;SDS011;20119;48.334;16.206;2024-03-06T13:27:32;25.05;;;19.25;;
33810;SDS011;20119;48.334;16.206;2024-03-06T13:29:59;28.45;;;20.10;;
33810;SDS011;20119;48.334;16.206;2024-03-06T13:32:26;26.77;;;20.17;;
33810;SDS011;20119;48.334;16.206;2024-03-06T13:34:54;26.05;;;20.02;;
33810;SDS011;20119;48.334;16.206;2024-03-06T13:37:21;27.02;;;19.92;;
33810;SDS011;20119;48.334;16.206;2024-03-06T13:39:49;25.83;;;19.13;;
33810;SDS011;20119;48.334;16.206;2024-03-06T13:42:17;27.77;;;19.83;;
33810;SDS011;20119;48.334;16.206;2024-03-06T13:44:45;27.15;;;20.25;;
33810;SDS011;20119;48.334;16.206;2024-03-06T13:47:14;26.92;;;19.63;;
33810;SDS011;20119;48.334;16.206;2024-03-06T13:49:43;27.90;;;20.83;;
33810;SDS011;20119;48.334;16.206;2024-03-06T13:54:48;26.20;;;19.70;;
33810;SDS011;20119;48.334;16.206;2024-03-06T13:59:45;29.17;;;20.08;;
33810;SDS011;20119;48.334;16.206;2024-03-06T14:02:12;27.40;;;19.80;;
33810;SDS011;20119;48.334;16.206;2024-03-06T14:04:39;29.00;;;19.02;;
33810;SDS011;20119;48.334;16.206;2024-03-06T14:07:06;25.60;;;19.67;;
33810;SDS011;20119;48.334;16.206;2024-03-06T14:09:33;26.40;;;20.00;;
33810;SDS011;20119;48.334;16.206;2024-03-06T14:12:02;24.15;;;18.80;;
33810;SDS011;20119;48.334;16.206;2024-03-06T14:14:29;26.70;;;19.60;;
33810;SDS011;20119;48.334;16.206;2024-03-06T14:16:56;26.25;;;19.58;;
33810;SDS011;20119;48.334;16.206;2024-03-06T14:19:23;26.35;;;19.20;;
33810;SDS011;20119;48.334;16.206;2024-03-06T14:21:50;25.33;;;18.90;;
33810;SDS011;20119;48.334;16.206;2024-03-06T14:24:17;26.70;;;18.85;;
33810;SDS011;20119;48.334;16.206;2024-03-06T14:26:46;29.13;;;20.65;;
33810;SDS011;20119;48.334;16.206;2024-03-06T14:29:15;25.55;;;18.95;;
33810;SDS011;20119;48.334;16.206;2024-03-06T14:31:42;26.02;;;19.60;;
33810;SDS011;20119;48.334;16.206;2024-03-06T14:34:09;26.55;;;19.13;;
33810;SDS011;20119;48.334;16.206;2024-03-06T14:36:36;27.60;;;19.27;;
33810;SDS011;20119;48.334;16.206;2024-03-06T14:39:03;25.70;;;18.90;;
33810;SDS011;20119;48.334;16.206;2024-03-06T14:41:30;26.20;;;19.88;;
33810;SDS011;20119;48.334;16.206;2024-03-06T14:43:57;26.95;;;19.40;;
33810;SDS011;20119;48.334;16.206;2024-03-06T14:46:26;25.23;;;19.63;;
33810;SDS011;20119;48.334;16.206;2024-03-06T14:48:54;26.85;;;19.55;;
33810;SDS011;20119;48.334;16.206;2024-03-06T14:51:21;24.17;;;19.35;;
33810;SDS011;20119;48.334;16.206;2024-03-06T14:53:48;26.48;;;19.23;;
33810;SDS011;20119;48.334;16.206;2024-03-06T14:56:16;25.27;;;19.05;;
33810;SDS011;20119;48.334;16.206;2024-03-06T14:58:43;27.33;;;19.88;;
33810;SDS011;20119;48.334;16.206;2024-03-06T15:01:10;26.85;;;18.80;;
33810;SDS011;20119;48.334;16.206;2024-03-06T15:03:39;27.17;;;20.23;;
33810;SDS011;20119;48.334;16.206;2024-03-06T15:06:06;26.65;;;19.58;;
33810;SDS011;20119;48.334;16.206;2024-03-06T15:11:09;25.83;;;19.27;;
33810;SDS011;20119;48.334;16.206;2024-03-06T15:13:36;27.67;;;20.02;;
33810;SDS011;20119;48.334;16.206;2024-03-06T15:16:03;28.05;;;19.75;;
33810;SDS011;20119;48.334;16.206;2024-03-06T15:21:08;27.20;;;19.42;;
33810;SDS011;20119;48.334;16.206;2024-03-06T15:23:35;27.52;;;19.33;;
33810;SDS011;20119;48.334;16.206;2024-03-06T15:26:02;25.45;;;19.27;;
33810;SDS011;20119;48.334;16.206;2024-03-06T15:28:30;27.73;;;19.13;;
33810;SDS011;20119;48.334;16.206;2024-03-06T15:33:31;26.45;;;18.90;;
33810;SDS011;20119;48.334;16.206;2024-03-06T15:35:59;33.60;;;24.65;;
33810;SDS011;20119;48.334;16.206;2024-03-06T15:38:27;28.30;;;21.00;;
33810;SDS011;20119;48.334;16.206;2024-03-06T15:40:54;27.25;;;18.85;;
33810;SDS011;20119;48.334;16.206;2024-03-06T15:43:21;28.23;;;19.50;;
33810;SDS011;20119;48.334;16.206;2024-03-06T15:45:49;25.40;;;18.80;;
33810;SDS011;20119;48.334;16.206;2024-03-06T15:48:16;28.10;;;20.13;;
33810;SDS011;20119;48.334;16.206;2024-03-06T15:50:43;26.75;;;19.70;;
33810;SDS011;20119;48.334;16.206;2024-03-06T15:53:10;25.73;;;18.58;;
33810;SDS011;20119;48.334;16.206;2024-03-06T15:55:39;26.50;;;18.27;;
33810;SDS011;20119;48.334;16.206;2024-03-06T15:58:07;30.17;;;18.75;;
33810;SDS011;20119;48.334;16.206;2024-03-06T16:00:34;27.90;;;18.95;;
33810;SDS011;20119;48.334;16.206;2024-03-06T16:03:02;25.73;;;18.90;;
33810;SDS011;20119;48.334;16.206;2024-03-06T16:08:11;28.92;;;19.25;;
33810;SDS011;20119;48.334;16.206;2024-03-06T16:13:29;29.85;;;19.23;;
33810;SDS011;20119;48.334;16.206;2024-03-06T16:15:56;24.98;;;18.15;;
33810;SDS011;20119;48.334;16.206;2024-03-06T16:18:23;25.92;;;18.13;;
33810;SDS011;20119;48.334;16.206;2024-03-06T16:20:50;28.27;;;19.60;;
33810;SDS011;20119;48.334;16.206;2024-03-06T16:23:34;27.63;;;18.70;;
33810;SDS011;20119;48.334;16.206;2024-03-06T16:26:03;26.67;;;18.92;;
33810;SDS011;20119;48.334;16.206;2024-03-06T16:28:31;25.85;;;19.00;;
33810;SDS011;20119;48.334;16.206;2024-03-06T16:30:58;27.92;;;19.27;;
33810;SDS011;20119;48.334;16.206;2024-03-06T16:33:25;56.95;;;41.90;;
33810;SDS011;20119;48.334;16.206;2024-03-06T16:35:52;132.63;;;85.63;;
33810;SDS011;20119;48.334;16.206;2024-03-06T16:38:19;41.88;;;30.02;;
33810;SDS011;20119;48.334;16.206;2024-03-06T16:40:47;97.15;;;69.43;;